Time;durP1;ratioP1;P1;durP2;ratioP2;P2;SDS_P1;SDS_P2;PMS_P1;PMS_P2;Temp;Humidity;BMP_temperature;BMP_pressure;BME280_temperature;BME280_humidity;BME280_pressure;Samples;Min_cycle;Max_cycle;Signal;HPM_P1;HPM_P2
2022/02/21 00:02:43;;;;;;;;;44.75;36.00;;;;;10.00;70.08;101151.31;146605;570;46017;-73
2022/02/21 00:05:35;;;;;;;;;42.25;33.25;;;;;9.96;70.09;101147.66;146605;640;46020;-70
2022/02/21 00:08:27;;;;;;;;;72.50;59.50;;;;;9.95;70.71;101149.37;146605;649;46916;-70
2022/02/21 00:11:19;;;;;;;;;38.75;34.25;;;;;9.94;71.13;101142.41;146607;616;46010;-69
2022/02/21 00:14:11;;;;;;;;;39.50;34.00;;;;;9.93;70.81;101142.28;146603;674;46016;-69
2022/02/21 00:17:03;;;;;;;;;30.50;29.00;;;;;9.87;70.42;101139.34;146602;645;46020;-73
2022/02/21 00:19:55;;;;;;;;;37.75;33.25;;;;;9.84;70.37;101142.63;146606;815;46014;-75
2022/02/21 00:22:47;;;;;;;;;32.25;27.75;;;;;9.82;70.66;101146.84;146606;643;45912;-76
2022/02/21 00:25:39;;;;;;;;;36.25;31.75;;;;;9.77;70.40;101140.47;146606;631;46015;-79
2022/02/21 00:28:32;;;;;;;;;41.50;34.50;;;;;9.74;70.22;101142.00;146606;586;46010;-79
2022/02/21 00:31:23;;;;;;;;;32.00;28.00;;;;;9.70;70.25;101139.22;146606;626;46016;-79
2022/02/21 00:34:15;;;;;;;;;33.50;30.25;;;;;9.62;70.77;101135.25;146607;569;46010;-78
2022/02/21 00:37:07;;;;;;;;;32.25;29.25;;;;;9.55;71.43;101129.59;146603;565;46016;-79
2022/02/21 00:40:00;;;;;;;;;32.00;27.00;;;;;9.51;72.06;101115.59;146608;634;46010;-78
2022/02/21 00:42:51;;;;;;;;;33.75;29.25;;;;;9.51;71.49;101119.88;146606;572;46014;-79
2022/02/21 00:45:44;;;;;;;;;29.00;26.50;;;;;9.47;71.46;101117.09;146604;613;46010;-75
2022/02/21 00:48:35;;;;;;;;;34.00;30.25;;;;;9.48;71.25;101108.53;146604;574;46016;-70
2022/02/21 00:51:27;;;;;;;;;53.75;42.75;;;;;9.48;71.78;101102.47;146607;623;46020;-68
2022/02/21 00:54:20;;;;;;;;;48.25;39.00;;;;;9.53;72.12;101102.72;146604;600;46014;-68
2022/02/21 00:57:12;;;;;;;;;35.50;30.25;;;;;9.49;71.96;101099.94;146605;578;46030;-68
2022/02/21 01:00:04;;;;;;;;;37.25;32.25;;;;;9.48;71.99;101097.28;146605;612;46016;-69
2022/02/21 01:02:57;;;;;;;;;75.00;58.50;;;;;9.48;72.05;101090.41;146606;605;46010;-68
2022/02/21 01:05:49;;;;;;;;;35.75;32.00;;;;;9.50;71.80;101095.66;146606;586;46012;-71
2022/02/21 01:08:41;;;;;;;;;23.75;22.00;;;;;9.50;71.47;101095.66;146625;616;45012;-71
2022/02/21 01:11:34;;;;;;;;;46.75;37.50;;;;;9.47;71.99;101090.31;146624;564;45017;-70
2022/02/21 01:14:26;;;;;;;;;46.50;38.00;;;;;9.50;70.68;101090.47;146627;601;45913;-70
2022/02/21 01:17:18;;;;;;;;;22.75;20.75;;;;;9.48;71.29;101086.91;146627;587;45015;-72
2022/02/21 01:20:10;;;;;;;;;20.50;18.75;;;;;9.44;71.70;101082.38;146624;600;45020;-70
2022/02/21 01:23:02;;;;;;;;;32.75;26.50;;;;;9.38;71.58;101077.72;146624;617;45016;-69
2022/02/21 01:25:55;;;;;;;;;21.75;19.75;;;;;9.38;71.93;101076.81;146628;574;45012;-69
2022/02/21 01:28:46;;;;;;;;;26.75;25.25;;;;;9.39;71.55;101070.81;146626;620;45016;-69
2022/02/21 01:31:39;;;;;;;;;44.25;35.00;;;;;9.40;71.58;101070.00;146625;576;46013;-69
2022/02/21 01:34:30;;;;;;;;;18.50;15.00;;;;;9.36;72.79;101066.34;146625;564;45017;-71
2022/02/21 01:37:23;;;;;;;;;25.00;22.50;;;;;9.34;71.65;101069.62;146626;593;45020;-69
2022/02/21 01:40:16;;;;;;;;;52.00;39.50;;;;;9.33;71.54;101065.28;146628;582;45016;-70
2022/02/21 01:43:08;;;;;;;;;29.25;26.75;;;;;9.33;71.73;101071.34;146627;626;45020;-68
2022/02/21 01:46:00;;;;;;;;;29.75;23.50;;;;;9.33;71.99;101058.41;146625;645;45024;-68
2022/02/21 01:48:52;;;;;;;;;60.00;46.00;;;;;9.34;71.39;101059.28;146629;641;45010;-68
2022/02/21 01:51:44;;;;;;;;;45.75;37.50;;;;;9.30;72.17;101054.72;146627;643;45016;-68
2022/02/21 01:54:37;;;;;;;;;19.25;15.75;;;;;9.24;71.96;101050.97;146630;719;45013;-69
2022/02/21 01:57:30;;;;;;;;;21.50;19.25;;;;;9.20;71.99;101049.00;146627;586;45029;-69
2022/02/21 02:00:23;;;;;;;;;19.50;17.00;;;;;9.19;71.21;101044.63;146629;569;45010;-70
2022/02/21 02:03:16;;;;;;;;;18.25;15.75;;;;;9.18;71.47;101036.75;146624;639;45917;-69
2022/02/21 02:06:10;;;;;;;;;43.25;34.75;;;;;9.14;72.38;101038.25;146627;583;45020;-69
2022/02/21 02:09:02;;;;;;;;;72.00;57.25;;;;;9.10;71.83;101035.41;146603;577;45021;-72
2022/02/21 02:11:56;;;;;;;;;24.75;22.00;;;;;9.06;71.40;101034.28;146604;572;46010;-70
2022/02/21 02:14:48;;;;;;;;;48.00;38.75;;;;;9.05;72.85;101024.75;146602;597;46916;-71
2022/02/21 02:17:40;;;;;;;;;63.00;46.00;;;;;9.07;72.65;101025.75;146606;581;46021;-71
2022/02/21 02:20:32;;;;;;;;;25.75;23.25;;;;;9.08;71.71;101024.94;146603;618;46016;-70
2022/02/21 02:23:24;;;;;;;;;55.50;46.00;;;;;9.07;71.67;101017.09;146605;597;46020;-72
2022/02/21 02:26:17;;;;;;;;;46.00;35.75;;;;;9.02;72.26;101009.03;146602;643;47014;-69
2022/02/21 02:29:09;;;;;;;;;55.50;44.50;;;;;9.01;72.61;101017.63;146604;640;46020;-71
2022/02/21 02:32:00;;;;;;;;;66.75;52.75;;;;;8.97;72.20;101007.84;146604;588;46016;-73
2022/02/21 02:34:53;;;;;;;;;62.25;46.75;;;;;8.92;72.31;101012.75;146607;563;46010;-73
2022/02/21 02:37:46;;;;;;;;;18.50;17.00;;;;;8.91;72.25;101015.22;146605;582;46016;-75
2022/02/21 02:40:38;;;;;;;;;37.75;32.75;;;;;8.88;72.34;101017.63;146605;643;46012;-71
2022/02/21 02:43:30;;;;;;;;;20.25;19.75;;;;;8.85;72.30;101018.34;146604;602;46014;-68
2022/02/21 02:46:22;;;;;;;;;22.00;20.75;;;;;8.83;72.86;101011.28;146607;629;46020;-69
2022/02/21 02:49:14;;;;;;;;;34.50;30.50;;;;;8.84;72.02;101026.87;146604;634;46012;-70
2022/02/21 02:52:07;;;;;;;;;27.00;24.50;;;;;8.87;71.92;101018.44;146606;617;47010;-69
2022/02/21 02:54:59;;;;;;;;;19.50;17.25;;;;;8.87;71.60;101021.91;146600;577;46017;-72
2022/02/21 02:57:52;;;;;;;;;42.25;33.00;;;;;8.84;73.09;101021.72;146607;608;46010;-71
2022/02/21 03:00:44;;;;;;;;;55.25;42.50;;;;;8.78;72.97;101009.31;146605;612;46013;-74
2022/02/21 03:03:36;;;;;;;;;21.50;20.00;;;;;8.75;72.83;101016.87;146606;584;47010;-69
2022/02/21 03:06:28;;;;;;;;;16.25;15.50;;;;;8.74;72.65;101021.94;146602;641;46014;-70
2022/02/21 03:09:20;;;;;;;;;17.25;13.50;;;;;8.71;73.11;101016.56;146604;602;46011;-70
2022/02/21 03:12:13;;;;;;;;;8.00;4.00;;;;;8.67;73.25;101010.31;146606;580;46012;-73
2022/02/21 03:15:05;;;;;;;;;14.75;13.25;;;;;8.70;72.27;101007.94;146606;575;46020;-72
2022/02/21 03:17:57;;;;;;;;;13.50;12.75;;;;;8.78;72.39;101005.81;146604;612;46013;-72
2022/02/21 03:20:49;;;;;;;;;21.25;19.25;;;;;8.81;72.23;101013.75;146607;570;46010;-71
2022/02/21 03:23:41;;;;;;;;;17.25;16.25;;;;;8.84;72.46;101011.38;146605;594;46014;-71
2022/02/21 03:26:33;;;;;;;;;13.75;11.75;;;;;8.84;72.35;101015.66;146606;601;46010;-71
2022/02/21 03:29:25;;;;;;;;;20.50;18.00;;;;;8.81;73.58;101010.28;146605;568;46016;-71
2022/02/21 03:32:17;;;;;;;;;13.25;13.25;;;;;8.84;73.65;101008.78;146605;580;46012;-71
2022/02/21 03:35:10;;;;;;;;;20.75;17.75;;;;;8.92;73.50;101002.41;146605;674;46033;-72
2022/02/21 03:38:02;;;;;;;;;16.50;13.50;;;;;8.94;73.01;101007.66;146605;643;46011;-72
2022/02/21 03:40:54;;;;;;;;;16.75;12.00;;;;;8.90;73.50;101005.69;146603;622;46017;-74
2022/02/21 03:43:46;;;;;;;;;10.50;9.25;;;;;8.90;72.83;100992.78;146609;570;46010;-76
2022/02/21 03:46:41;;;;;;;;;31.00;25.50;;;;;8.91;73.26;101000.63;146601;588;47917;-75
2022/02/21 03:49:33;;;;;;;;;17.75;15.00;;;;;8.93;73.80;100999.03;146607;599;46020;-66
2022/02/21 03:52:26;;;;;;;;;26.25;23.50;;;;;8.97;73.91;100992.34;146603;581;46017;-66
2022/02/21 03:55:19;;;;;;;;;8.75;8.50;;;;;9.04;72.85;100991.94;146608;609;46010;-68
2022/02/21 03:58:11;;;;;;;;;11.50;10.00;;;;;9.07;72.08;100993.81;146605;569;46012;-69
2022/02/21 04:01:03;;;;;;;;;9.75;8.25;;;;;9.08;72.18;100996.50;146608;585;46030;-69
2022/02/21 04:03:55;;;;;;;;;12.50;9.75;;;;;9.12;72.25;100994.97;146607;625;45027;-66
2022/02/21 04:06:47;;;;;;;;;15.00;12.00;;;;;9.16;71.64;100987.53;146606;564;46010;-72
2022/02/21 04:09:39;;;;;;;;;9.00;8.50;;;;;9.20;72.86;100979.13;146606;606;46012;-72
2022/02/21 04:12:31;;;;;;;;;23.25;22.00;;;;;9.19;73.92;100982.53;146606;608;46020;-69
2022/02/21 04:15:23;;;;;;;;;10.75;9.75;;;;;9.21;73.26;100983.50;146605;581;46014;-70
2022/02/21 04:18:15;;;;;;;;;13.50;9.50;;;;;9.21;72.97;100980.03;146603;564;46020;-74
2022/02/21 04:21:07;;;;;;;;;11.25;9.50;;;;;9.21;72.15;100978.31;146604;564;46014;-69
2022/02/21 04:23:59;;;;;;;;;10.75;7.50;;;;;9.24;71.44;100977.62;146606;621;46011;-70
2022/02/21 04:26:52;;;;;;;;;11.25;9.25;;;;;9.24;72.12;100975.03;146606;632;45916;-72
2022/02/21 04:29:44;;;;;;;;;14.75;12.50;;;;;7.48;71.99;100661.91;146610;647;46010;-71
2022/02/21 04:32:38;;;;;;;;;10.50;9.00;;;;;9.17;72.70;100971.19;146602;569;46016;-72
2022/02/21 04:35:31;;;;;;;;;11.00;8.00;;;;;9.14;72.62;100967.53;146604;577;46010;-73
2022/02/21 04:38:23;;;;;;;;;9.25;7.25;;;;;9.11;73.17;100954.41;146605;614;46012;-73
2022/02/21 04:41:15;;;;;;;;;10.25;8.25;;;;;9.13;72.47;100969.22;146608;698;46032;-73
2022/02/21 04:44:08;;;;;;;;;10.75;9.00;;;;;9.15;72.49;100961.53;146603;663;46916;-73
2022/02/21 04:47:00;;;;;;;;;11.25;11.25;;;;;9.17;72.35;100957.34;146607;588;46010;-73
2022/02/21 04:49:52;;;;;;;;;13.00;11.25;;;;;9.17;72.23;100972.87;146601;584;48925;-73
2022/02/21 04:52:45;;;;;;;;;9.75;9.50;;;;;9.16;72.58;100963.34;146608;690;46010;-73
2022/02/21 04:55:37;;;;;;;;;23.00;19.75;;;;;9.14;73.32;100960.66;146603;574;46016;-70
2022/02/21 04:58:29;;;;;;;;;16.75;13.25;;;;;9.16;72.47;100963.34;146607;606;46010;-68
2022/02/21 05:01:21;;;;;;;;;13.25;12.75;;;;;9.17;72.54;100963.44;146605;584;46012;-68
2022/02/21 05:04:14;;;;;;;;;10.50;8.50;;;;;9.18;72.29;100962.63;146606;577;46030;-72
2022/02/21 05:07:06;;;;;;;;;11.00;9.75;;;;;9.15;72.64;100956.38;146605;592;46013;-70
2022/02/21 05:09:58;;;;;;;;;12.25;9.75;;;;;9.12;72.93;100962.25;146609;572;46010;-71
2022/02/21 05:12:50;;;;;;;;;11.75;11.00;;;;;9.13;72.80;100955.41;146606;628;46017;-70
2022/02/21 05:15:42;;;;;;;;;11.00;9.00;;;;;9.10;73.25;100950.94;146609;570;46010;-71
2022/02/21 05:18:33;;;;;;;;;14.50;11.00;;;;;9.08;72.32;100947.34;146606;625;46012;-71
2022/02/21 05:21:26;;;;;;;;;11.00;10.00;;;;;9.14;72.16;100955.47;146607;701;46021;-70
2022/02/21 05:24:18;;;;;;;;;14.00;12.25;;;;;9.14;72.92;100952.00;146604;607;46014;-71
2022/02/21 05:27:11;;;;;;;;;14.25;10.50;;;;;9.17;73.04;100958.25;146607;600;46012;-70
2022/02/21 05:30:02;;;;;;;;;11.50;10.00;;;;;9.22;72.93;100963.69;146606;576;46014;-71
2022/02/21 05:32:55;;;;;;;;;15.00;13.75;;;;;9.25;72.18;100962.22;146604;615;47010;-72
2022/02/21 05:35:47;;;;;;;;;17.25;16.00;;;;;9.27;73.01;100975.22;146602;702;46015;-73
2022/02/21 05:38:39;;;;;;;;;13.50;12.00;;;;;9.25;72.36;100971.63;146606;595;46032;-70
2022/02/21 05:41:31;;;;;;;;;13.00;10.25;;;;;9.25;72.78;100975.16;146606;613;46012;-69
2022/02/21 05:44:23;;;;;;;;;13.50;13.00;;;;;9.28;72.50;100978.69;146602;564;46021;-70
2022/02/21 05:47:15;;;;;;;;;12.00;10.00;;;;;9.34;72.65;100985.13;146605;566;46012;-69
2022/02/21 05:50:07;;;;;;;;;13.25;10.50;;;;;9.70;72.59;100981.25;146606;594;46020;-69
2022/02/21 05:52:59;;;;;;;;;10.75;10.75;;;;;10.52;70.93;100986.81;146604;592;46016;-73
2022/02/21 05:55:51;;;;;;;;;11.00;9.00;;;;;11.50;68.77;100986.88;146606;586;47012;-70
2022/02/21 05:58:44;;;;;;;;;12.50;10.25;;;;;12.53;66.85;100985.91;146604;562;46016;-68
2022/02/21 06:01:36;;;;;;;;;12.50;10.50;;;;;13.58;63.76;100980.31;146604;569;46010;-69
2022/02/21 06:04:28;;;;;;;;;11.25;10.00;;;;;14.58;62.19;100981.84;146604;596;46016;-68
2022/02/21 06:07:20;;;;;;;;;18.25;17.50;;;;;15.58;58.33;100973.34;146607;582;46021;-69
2022/02/21 06:10:12;;;;;;;;;13.25;12.50;;;;;16.32;55.95;100971.50;146605;602;46033;-68
2022/02/21 06:13:04;;;;;;;;;19.25;16.25;;;;;16.85;54.81;100973.97;146606;614;46020;-68
2022/02/21 06:15:56;;;;;;;;;19.75;18.00;;;;;17.32;53.47;100964.00;146604;564;46021;-69
2022/02/21 06:18:49;;;;;;;;;21.25;17.00;;;;;17.82;52.96;100972.34;146606;662;46020;-69
2022/02/21 06:21:41;;;;;;;;;19.75;17.00;;;;;18.34;52.67;100973.63;146604;648;46014;-67
2022/02/21 06:24:33;;;;;;;;;20.50;17.50;;;;;18.93;51.20;100978.47;146605;573;46022;-71
2022/02/21 06:27:24;;;;;;;;;27.25;24.25;;;;;19.38;50.29;100972.37;146605;613;46012;-69
2022/02/21 06:30:17;;;;;;;;;58.00;45.50;;;;;19.68;49.77;100977.34;146605;718;46011;-68
2022/02/21 06:33:09;;;;;;;;;37.25;32.00;;;;;19.97;49.07;100969.06;146600;623;46016;-74
2022/02/21 06:36:02;;;;;;;;;35.25;28.75;;;;;20.21;48.10;100971.22;146603;571;46020;-73
2022/02/21 06:38:54;;;;;;;;;31.50;25.75;;;;;20.33;47.93;100971.41;146602;569;46012;-71
2022/02/21 06:41:46;;;;;;;;;45.50;37.25;;;;;20.24;46.91;100969.50;146606;569;46010;-72
2022/02/21 06:44:38;;;;;;;;;46.50;37.50;;;;;19.95;46.98;100968.16;146602;620;46013;-71
2022/02/21 06:47:30;;;;;;;;;50.00;40.25;;;;;19.57;47.88;100961.34;146605;674;46010;-71
2022/02/21 06:50:22;;;;;;;;;42.50;36.75;;;;;19.15;47.96;100967.53;146603;564;46016;-71
2022/02/21 06:53:14;;;;;;;;;33.75;30.75;;;;;18.71;49.56;100958.69;146605;600;46020;-71
2022/02/21 06:56:07;;;;;;;;;35.75;31.00;;;;;18.33;50.33;100960.47;146600;578;46036;-71
2022/02/21 06:58:59;;;;;;;;;45.75;35.75;;;;;18.04;50.63;100958.03;146605;571;46021;-76
2022/02/21 07:01:53;;;;;;;;;47.00;38.50;;;;;17.76;51.25;100957.31;146600;691;46030;-69
2022/02/21 07:04:45;;;;;;;;;27.00;24.75;;;;;17.53;51.99;100959.31;146607;599;46010;-70
2022/02/21 07:07:38;;;;;;;;;27.00;24.25;;;;;17.40;53.17;100957.22;146606;613;47012;-69
2022/02/21 07:10:30;;;;;;;;;34.50;30.75;;;;;17.34;52.76;100957.03;146608;571;46020;-67
2022/02/21 07:13:22;;;;;;;;;48.25;39.00;;;;;17.27;53.49;100965.59;146602;569;46016;-72
2022/02/21 07:16:14;;;;;;;;;44.75;36.75;;;;;17.17;53.98;100955.72;146606;566;46010;-69
2022/02/21 07:19:06;;;;;;;;;36.25;32.25;;;;;17.16;54.76;100952.19;146605;584;46016;-69
2022/02/21 07:21:59;;;;;;;;;37.25;31.50;;;;;17.26;55.16;100961.22;146606;636;46021;-69
2022/02/21 07:24:51;;;;;;;;;32.25;29.25;;;;;17.37;54.63;100957.12;146603;615;46014;-71
2022/02/21 07:28:01;;;;;;;;;25.00;23.75;;;;;17.57;54.66;100959.37;146604;598;46010;-70
2022/02/21 07:30:53;;;;;;;;;49.50;38.50;;;;;17.70;52.75;100954.53;146603;647;46019;-70
2022/02/21 07:33:45;;;;;;;;;50.75;42.25;;;;;17.80;51.50;100949.56;146609;591;46012;-71
2022/02/21 07:36:38;;;;;;;;;49.00;39.25;;;;;17.94;52.43;100948.16;146603;609;46017;-72
2022/02/21 07:39:31;;;;;;;;;33.00;29.00;;;;;18.06;51.16;100945.81;146603;603;47010;-72
2022/02/21 07:42:23;;;;;;;;;30.25;29.75;;;;;18.20;52.05;100947.06;146600;601;46016;-72
2022/02/21 07:45:15;;;;;;;;;16.75;15.25;;;;;18.33;52.44;100953.47;146606;564;46020;-72
2022/02/21 07:48:08;;;;;;;;;25.50;23.00;;;;;18.42;51.99;100948.44;146603;591;46916;-71
2022/02/21 07:51:00;;;;;;;;;29.25;24.25;;;;;18.52;51.56;100952.16;146608;564;45021;-70
2022/02/21 07:53:52;;;;;;;;;34.25;29.50;;;;;18.66;51.48;100941.94;146603;602;46016;-73
2022/02/21 07:56:45;;;;;;;;;33.25;27.75;;;;;18.82;52.48;100941.47;146603;596;46023;-74
2022/02/21 07:59:37;;;;;;;;;24.25;22.75;;;;;18.07;51.08;100779.69;146604;582;46012;-73
2022/02/21 08:02:30;;;;;;;;;29.00;26.00;;;;;19.14;50.51;100933.34;146606;574;46020;-73
2022/02/21 08:05:22;;;;;;;;;24.25;21.75;;;;;19.23;49.57;100940.53;146603;581;46016;-73
2022/02/21 08:08:14;;;;;;;;;24.75;22.25;;;;;19.18;45.88;100929.91;146607;602;45027;-73
2022/02/21 08:11:07;;;;;;;;;24.75;24.00;;;;;19.10;47.88;100935.03;146603;596;47014;-73
2022/02/21 08:13:59;;;;;;;;;26.50;23.25;;;;;19.06;47.67;100922.66;146600;629;46912;-73
2022/02/21 08:16:51;;;;;;;;;33.50;29.75;;;;;18.99;50.05;100920.78;146607;724;46012;-72
2022/02/21 08:19:43;;;;;;;;;36.25;30.25;;;;;18.82;50.58;100928.34;146602;583;46912;-73
2022/02/21 08:22:35;;;;;;;;;24.25;20.00;;;;;18.59;49.42;100921.66;146602;569;46032;-73
2022/02/21 08:25:28;;;;;;;;;30.00;27.50;;;;;18.42;51.28;100914.31;146604;605;47010;-73
2022/02/21 08:28:19;;;;;;;;;22.00;22.00;;;;;18.38;52.14;100909.84;146604;657;46013;-73
2022/02/21 08:31:12;;;;;;;;;23.25;22.50;;;;;18.45;53.50;100903.88;146606;600;46020;-73
2022/02/21 08:34:03;;;;;;;;;27.25;24.75;;;;;18.58;53.22;100901.50;146605;675;46012;-76
2022/02/21 08:36:56;;;;;;;;;23.00;20.25;;;;;18.73;51.89;100899.25;146603;582;47012;-71
2022/02/21 08:39:47;;;;;;;;;24.25;22.00;;;;;18.86;52.79;100895.13;146606;597;46012;-71
2022/02/21 08:42:40;;;;;;;;;24.75;23.50;;;;;18.91;52.17;100889.13;146606;581;46020;-72
2022/02/21 08:45:32;;;;;;;;;23.75;22.25;;;;;18.91;51.67;100890.84;146602;646;46016;-73
2022/02/21 08:48:24;;;;;;;;;23.50;22.50;;;;;18.84;50.84;100881.94;146604;576;47010;-69
2022/02/21 08:51:16;;;;;;;;;21.75;20.75;;;;;18.75;51.89;100881.75;146605;586;46017;-69
2022/02/21 08:54:09;;;;;;;;;26.25;22.25;;;;;18.75;54.28;100871.25;146603;596;46020;-70
2022/02/21 08:57:01;;;;;;;;;24.50;23.25;;;;;18.82;52.92;100869.66;146603;592;47014;-69
2022/02/21 08:59:54;;;;;;;;;20.00;18.75;;;;;18.80;52.26;100866.09;146606;622;46012;-71
2022/02/21 09:02:46;;;;;;;;;26.75;23.50;;;;;18.81;53.57;100867.87;146603;604;46016;-70
2022/02/21 09:05:39;;;;;;;;;22.00;19.50;;;;;18.84;53.64;100860.94;146605;625;46021;-70
2022/02/21 09:08:31;;;;;;;;;24.25;22.25;;;;;18.99;52.64;100854.22;146602;579;46016;-70
2022/02/21 09:11:24;;;;;;;;;26.75;22.25;;;;;19.20;52.56;100851.97;146605;616;46033;-70
2022/02/21 09:14:16;;;;;;;;;28.00;24.00;;;;;19.45;52.53;100849.78;146603;614;46037;-69
2022/02/21 09:17:08;;;;;;;;;21.50;18.25;;;;;19.71;52.91;100840.59;146605;588;47010;-69
2022/02/21 09:20:00;;;;;;;;;28.00;23.75;;;;;20.00;52.50;100838.44;146603;570;46016;-69
2022/02/21 09:22:53;;;;;;;;;19.75;18.25;;;;;20.25;51.58;100830.88;146604;574;46020;-69
2022/02/21 09:25:45;;;;;;;;;20.25;19.00;;;;;20.41;51.71;100831.97;146606;601;46012;-69
2022/02/21 09:28:37;;;;;;;;;18.00;17.00;;;;;19.60;51.45;100664.16;146606;579;45912;-69
2022/02/21 09:31:29;;;;;;;;;17.50;17.50;;;;;20.61;51.42;100819.94;146603;575;46034;-69
2022/02/21 09:34:22;;;;;;;;;19.50;17.25;;;;;20.69;51.95;100817.41;146606;571;46010;-69
2022/02/21 09:37:14;;;;;;;;;21.25;18.00;;;;;20.82;51.70;100815.78;146603;605;47012;-69
2022/02/21 09:40:12;;;;;;;;;19.50;19.50;;;;;20.86;50.49;100817.56;146604;571;46024;-69
2022/02/21 09:43:04;;;;;;;;;19.25;18.25;;;;;20.74;51.11;100811.28;146604;563;46012;-69
2022/02/21 09:46:04;;;;;;;;;25.50;22.75;;;;;20.76;49.29;100814.84;146607;691;46010;-70
2022/02/21 09:48:57;;;;;;;;;21.75;19.75;;;;;20.65;47.09;100811.19;146602;610;46016;-69
2022/02/21 09:51:50;;;;;;;;;20.50;19.50;;;;;20.51;49.17;100804.84;146605;565;46010;-70
2022/02/21 09:54:42;;;;;;;;;23.50;21.25;;;;;20.45;48.61;100795.12;146603;564;46916;-70
2022/02/21 09:57:34;;;;;;;;;22.00;20.00;;;;;20.56;49.66;100790.03;146606;641;46010;-69
2022/02/21 10:00:26;;;;;;;;;25.25;23.50;;;;;20.79;49.75;100789.41;146605;617;46014;-69
2022/02/21 10:03:22;;;;;;;;;19.75;17.50;;;;;21.05;49.43;100772.06;146606;576;46010;-69
2022/02/21 10:06:29;;;;;;;;;18.75;16.75;;;;;21.26;50.73;100774.03;146601;582;46016;-69
2022/02/21 10:09:22;;;;;;;;;14.25;13.00;;;;;21.36;48.16;100769.72;146606;568;46020;-69
2022/02/21 10:12:28;;;;;;;;;18.75;18.00;;;;;21.40;49.69;100764.50;146600;569;47014;-70
2022/02/21 10:15:26;;;;;;;;;22.25;18.75;;;;;21.50;48.32;100757.53;146606;593;46020;-69
2022/02/21 10:18:22;;;;;;;;;19.00;15.75;;;;;21.55;47.97;100749.66;146599;655;47012;-69
2022/02/21 10:21:15;;;;;;;;;20.75;16.50;;;;;21.61;47.74;100741.78;146604;572;46010;-70
2022/02/21 10:24:11;;;;;;;;;14.25;14.25;;;;;21.66;47.33;100734.78;146603;713;46016;-69
2022/02/21 10:27:11;;;;;;;;;19.50;17.00;;;;;21.73;47.33;100725.13;146606;573;46020;-71
2022/02/21 10:30:10;;;;;;;;;17.50;15.75;;;;;21.77;46.90;100722.50;146603;697;46016;-69
2022/02/21 10:33:15;;;;;;;;;18.50;14.50;;;;;21.73;48.48;100711.94;146604;603;46021;-69
2022/02/21 10:36:07;;;;;;;;;14.25;12.00;;;;;21.60;47.45;100708.34;146603;565;46916;-69
2022/02/21 10:39:00;;;;;;;;;18.75;15.75;;;;;21.44;47.56;100707.38;146607;719;46010;-69
2022/02/21 10:42:02;;;;;;;;;17.00;13.75;;;;;21.35;49.64;100688.81;146603;684;46017;-69
2022/02/21 10:44:55;;;;;;;;;15.25;13.00;;;;;21.37;48.31;100689.72;146606;664;46010;-69
2022/02/21 10:48:11;;;;;;;;;16.25;13.75;;;;;20.34;50.32;100493.91;146602;602;46017;-69
2022/02/21 10:51:07;;;;;;;;;14.00;13.00;;;;;21.42;48.31;100677.47;146603;598;46010;-69
2022/02/21 10:53:59;;;;;;;;;14.50;14.25;;;;;21.36;47.31;100666.88;146602;615;46017;-69
2022/02/21 10:56:52;;;;;;;;;15.00;12.75;;;;;21.35;47.67;100659.81;146604;595;47010;-68
2022/02/21 10:59:44;;;;;;;;;12.75;11.00;;;;;21.44;45.95;100646.72;146604;669;46916;-70
2022/02/21 11:02:37;;;;;;;;;10.00;9.25;;;;;21.61;45.54;100646.78;146608;608;46010;-69
2022/02/21 11:05:32;;;;;;;;;9.50;9.00;;;;;21.76;42.72;100633.66;146600;664;46016;-70
2022/02/21 11:08:24;;;;;;;;;13.00;12.00;;;;;21.88;43.95;100632.84;146607;665;46022;-68
2022/02/21 11:11:19;;;;;;;;;17.75;16.25;;;;;21.91;44.35;100623.16;146607;677;46012;-71
2022/02/21 11:14:12;;;;;;;;;19.50;18.25;;;;;21.96;44.62;100628.44;146603;571;46010;-68
2022/02/21 11:17:09;;;;;;;;;16.50;15.50;;;;;21.86;41.83;100624.00;146602;613;46014;-68
2022/02/21 11:20:01;;;;;;;;;14.75;14.75;;;;;21.69;43.47;100616.03;146604;575;46010;-70
2022/02/21 11:22:53;;;;;;;;;16.25;16.00;;;;;21.51;43.43;100614.19;146600;641;46016;-69
2022/02/21 11:26:17;;;;;;;;;16.00;13.75;;;;;21.29;43.29;100599.09;146605;602;47010;-69
2022/02/21 11:29:49;;;;;;;;;17.50;15.75;;;;;21.08;42.82;100598.09;146602;600;46016;-69
2022/02/21 11:32:43;;;;;;;;;16.75;15.75;;;;;20.86;44.67;100593.56;146604;607;46010;-68
2022/02/21 11:35:36;;;;;;;;;18.75;16.25;;;;;20.80;45.14;100585.59;146603;596;46014;-68
2022/02/21 11:38:29;;;;;;;;;21.00;17.75;;;;;20.87;45.87;100579.50;146606;635;46010;-68
2022/02/21 11:41:21;;;;;;;;;18.00;16.00;;;;;20.97;44.82;100576.06;146604;594;46012;-68
2022/02/21 11:44:26;;;;;;;;;16.00;14.75;;;;;19.66;43.47;100333.72;146604;590;46012;-70
2022/02/21 11:47:42;;;;;;;;;12.50;11.75;;;;;21.04;46.97;100558.53;146603;565;46016;-70
2022/02/21 11:50:35;;;;;;;;;14.50;11.25;;;;;21.23;43.38;100560.41;146604;632;46020;-68
2022/02/21 11:53:30;;;;;;;;;15.00;13.75;;;;;21.33;41.64;100556.91;146598;648;47013;-69
2022/02/21 11:56:23;;;;;;;;;16.25;12.75;;;;;21.39;42.12;100543.78;146605;565;46020;-69
2022/02/21 11:59:31;;;;;;;;;18.25;16.75;;;;;21.43;42.63;100542.03;146603;655;46016;-69
2022/02/21 12:02:24;;;;;;;;;12.00;10.75;;;;;21.39;41.78;100535.87;146607;588;46028;-70
2022/02/21 12:05:24;;;;;;;;;15.00;13.75;;;;;21.33;42.71;100527.03;146603;573;47012;-68
2022/02/21 12:08:41;;;;;;;;;16.00;13.00;;;;;21.25;42.72;100523.50;146607;673;46011;-69
2022/02/21 12:11:34;;;;;;;;;13.25;11.25;;;;;21.29;43.43;100514.72;146603;580;46916;-69
2022/02/21 12:14:27;;;;;;;;;19.00;17.00;;;;;21.40;44.21;100513.03;146606;651;46020;-70
2022/02/21 12:17:19;;;;;;;;;11.50;11.50;;;;;21.58;42.48;100505.16;146604;572;46016;-69
2022/02/21 12:20:36;;;;;;;;;14.75;14.50;;;;;21.78;45.56;100499.09;146603;581;46020;-69
2022/02/21 12:23:28;;;;;;;;;17.00;15.25;;;;;21.99;43.51;100491.16;146601;623;46915;-69
2022/02/21 12:26:21;;;;;;;;;13.25;11.25;;;;;22.21;43.37;100488.56;146605;569;47012;-69
2022/02/21 12:29:29;;;;;;;;;12.25;11.25;;;;;22.37;44.36;100488.56;146604;681;47013;-70
2022/02/21 12:32:29;;;;;;;;;16.75;14.50;;;;;22.55;43.25;100476.22;146606;606;46020;-70
2022/02/21 12:35:21;;;;;;;;;15.00;13.50;;;;;22.64;41.37;100473.56;146602;568;46916;-67
2022/02/21 12:38:13;;;;;;;;;10.75;9.75;;;;;22.63;41.93;100476.22;146605;676;47012;-67
2022/02/21 12:41:12;;;;;;;;;15.00;12.75;;;;;22.67;40.06;100462.09;146604;618;46012;-67
2022/02/21 12:44:09;;;;;;;;;15.00;15.00;;;;;22.72;40.30;100450.63;146604;606;46011;-67
2022/02/21 12:47:04;;;;;;;;;14.50;13.50;;;;;22.70;40.28;100455.03;146603;563;46016;-67
2022/02/21 12:49:58;;;;;;;;;15.50;14.00;;;;;22.74;41.84;100447.97;146604;584;46010;-67
2022/02/21 12:52:50;;;;;;;;;15.00;13.50;;;;;22.80;41.36;100442.66;146604;569;46012;-67
2022/02/21 12:55:51;;;;;;;;;17.00;17.00;;;;;22.90;42.96;100443.53;146606;636;46020;-68
2022/02/21 12:58:43;;;;;;;;;18.25;17.00;;;;;22.96;40.64;100439.12;146603;643;46016;-66
2022/02/21 13:01:35;;;;;;;;;18.75;16.50;;;;;23.04;41.58;100437.31;146605;612;46021;-66
2022/02/21 13:04:30;;;;;;;;;13.50;13.25;;;;;23.05;39.82;100427.63;146602;642;47012;-67
2022/02/21 13:07:22;;;;;;;;;15.00;14.00;;;;;23.04;41.09;100420.59;146604;604;46021;-67
2022/02/21 13:10:14;;;;;;;;;13.75;13.50;;;;;23.13;41.30;100427.59;146602;586;46016;-67
2022/02/21 13:13:06;;;;;;;;;10.00;9.50;;;;;23.18;42.14;100426.69;146604;722;47010;-66
2022/02/21 13:15:58;;;;;;;;;5.75;3.00;;;;;23.20;40.08;100432.84;146604;577;46014;-66